createdAt,value
2017-11-24T00:00:09.431Z,9.00
2017-11-24T00:02:37.523Z,8.90
2017-11-24T00:05:05.608Z,9.00
2017-11-24T00:07:34.456Z,8.90
2017-11-24T00:10:02.537Z,8.90
2017-11-24T00:12:30.624Z,8.80
2017-11-24T00:14:58.695Z,8.90
2017-11-24T00:17:26.776Z,8.80
2017-11-24T00:19:55.624Z,8.60
2017-11-24T00:22:23.700Z,8.60
2017-11-24T00:24:51.760Z,8.70
2017-11-24T00:27:19.842Z,8.70
2017-11-24T00:29:47.920Z,8.80
2017-11-24T00:32:16.004Z,8.70
2017-11-24T00:34:44.080Z,8.70
2017-11-24T00:37:12.152Z,8.70
2017-11-24T00:39:40.224Z,8.60
2017-11-24T00:42:09.068Z,8.60
2017-11-24T00:44:37.165Z,8.60
2017-11-24T00:47:05.244Z,8.60
2017-11-24T00:49:33.316Z,8.60
2017-11-24T00:52:01.396Z,8.60
2017-11-24T00:54:30.236Z,8.50
2017-11-24T00:56:58.331Z,8.50
2017-11-24T00:59:26.408Z,8.50
2017-11-24T01:01:54.489Z,8.50
2017-11-24T01:04:23.338Z,8.60
2017-11-24T01:06:51.424Z,8.60
2017-11-24T01:09:19.496Z,8.50
2017-11-24T01:11:53.456Z,8.60
2017-11-24T01:14:21.530Z,8.60
2017-11-24T01:16:49.618Z,8.60
2017-11-24T01:19:17.705Z,8.60
2017-11-24T01:21:45.774Z,8.70
2017-11-24T01:24:13.852Z,8.70
2017-11-24T01:26:41.932Z,8.80
2017-11-24T01:29:10.019Z,8.80
2017-11-24T01:31:38.080Z,8.70
2017-11-24T01:34:06.168Z,8.80
2017-11-24T01:36:35.012Z,8.80
2017-11-24T01:39:03.091Z,8.80
2017-11-24T01:41:31.166Z,8.70
2017-11-24T01:43:59.251Z,8.70
2017-11-24T01:46:27.332Z,8.50
2017-11-24T01:48:56.183Z,8.80
2017-11-24T01:51:24.253Z,8.80
2017-11-24T01:53:52.339Z,8.70
2017-11-24T01:56:20.491Z,8.60
2017-11-24T01:58:48.636Z,8.70
2017-11-24T02:01:16.711Z,8.70
2017-11-24T02:03:44.829Z,8.70
2017-11-24T02:06:12.910Z,8.70
2017-11-24T02:08:41.797Z,8.70
2017-11-24T02:11:09.876Z,8.70
2017-11-24T02:13:38.718Z,8.80
2017-11-24T02:16:06.793Z,8.80
2017-11-24T02:18:34.868Z,8.70
2017-11-24T02:21:02.964Z,8.80
2017-11-24T02:23:31.035Z,8.80
2017-11-24T02:25:59.105Z,8.80
2017-11-24T02:28:27.175Z,8.80
2017-11-24T02:30:55.256Z,8.90
2017-11-24T02:33:24.101Z,8.90
2017-11-24T02:35:52.189Z,8.90
2017-11-24T02:38:20.273Z,8.90
2017-11-24T02:40:48.348Z,9.00
2017-11-24T02:43:17.197Z,9.00
2017-11-24T02:45:45.278Z,9.00
2017-11-24T02:48:13.404Z,9.00
2017-11-24T02:50:42.298Z,9.10
2017-11-24T02:53:11.157Z,9.20
2017-11-24T02:55:39.261Z,9.10
2017-11-24T02:58:08.130Z,9.20
2017-11-24T03:00:36.238Z,9.20
2017-11-24T03:03:04.351Z,9.40
2017-11-24T03:05:32.408Z,9.30
2017-11-24T03:08:00.503Z,9.30
2017-11-24T03:10:29.344Z,9.20
2017-11-24T03:12:57.428Z,9.20
2017-11-24T03:15:25.516Z,9.20
2017-11-24T03:17:53.594Z,9.20
2017-11-24T03:20:21.664Z,9.40
2017-11-24T03:22:50.512Z,9.30
2017-11-24T03:25:18.580Z,9.30
2017-11-24T03:27:46.685Z,9.30
2017-11-24T03:30:14.746Z,9.30
2017-11-24T03:32:42.823Z,9.30
2017-11-24T03:35:10.908Z,9.20
2017-11-24T03:37:39.747Z,9.30
2017-11-24T03:40:07.900Z,9.20
2017-11-24T03:42:35.973Z,9.40
2017-11-24T03:45:04.060Z,9.30
2017-11-24T03:47:32.184Z,9.40
2017-11-24T03:50:00.269Z,9.30
2017-11-24T03:52:28.341Z,9.40
2017-11-24T03:54:56.420Z,9.40
2017-11-24T03:57:24.488Z,9.40
2017-11-24T03:59:52.592Z,9.30
2017-11-24T04:02:20.682Z,9.30
2017-11-24T04:04:48.764Z,9.40
2017-11-24T04:07:16.938Z,9.30
2017-11-24T04:09:45.033Z,9.20
2017-11-24T04:12:13.104Z,9.20
2017-11-24T04:14:41.173Z,9.20
2017-11-24T04:17:09.245Z,9.20
2017-11-24T04:19:37.320Z,9.20
2017-11-24T04:22:05.624Z,9.20
2017-11-24T04:24:33.832Z,9.20
2017-11-24T04:27:01.907Z,9.20
2017-11-24T04:29:29.983Z,9.20
2017-11-24T04:31:58.822Z,9.20
2017-11-24T04:34:26.898Z,9.10
2017-11-24T04:36:54.989Z,9.10
2017-11-24T04:39:23.069Z,9.00
2017-11-24T04:41:51.141Z,9.00
2017-11-24T04:44:19.226Z,8.90
2017-11-24T04:46:48.064Z,8.90
2017-11-24T04:49:16.137Z,8.90
2017-11-24T04:51:44.228Z,9.00
2017-11-24T04:54:12.312Z,9.00
2017-11-24T04:56:40.384Z,9.00
2017-11-24T04:59:08.463Z,9.10
2017-11-24T05:01:37.310Z,9.00
2017-11-24T05:04:05.378Z,9.00
2017-11-24T05:06:33.460Z,9.10
2017-11-24T05:09:01.525Z,9.10
2017-11-24T05:11:29.599Z,9.10
2017-11-24T05:13:57.670Z,9.10
2017-11-24T05:16:25.767Z,9.10
2017-11-24T05:18:54.746Z,9.00
2017-11-24T05:21:22.788Z,8.90
2017-11-24T05:23:50.877Z,8.90
2017-11-24T05:26:18.943Z,8.80
2017-11-24T05:28:47.024Z,8.80
2017-11-24T05:31:15.088Z,8.80
2017-11-24T05:33:43.159Z,8.80
2017-11-24T05:36:11.255Z,8.80
2017-11-24T05:38:40.165Z,8.70
2017-11-24T05:41:08.236Z,8.70
2017-11-24T05:43:36.322Z,8.70
2017-11-24T05:46:04.388Z,8.70
2017-11-24T05:48:32.464Z,8.70
2017-11-24T05:51:00.543Z,8.70
2017-11-24T05:53:28.619Z,8.80
2017-11-24T05:55:56.693Z,8.80
2017-11-24T05:58:24.779Z,8.70
2017-11-24T06:00:52.864Z,8.70
2017-11-24T06:03:20.949Z,8.70
2017-11-24T06:05:49.789Z,8.70
2017-11-24T06:08:17.877Z,8.70
2017-11-24T06:10:45.951Z,8.60
2017-11-24T06:13:14.029Z,8.60
2017-11-24T06:15:42.113Z,8.50
2017-11-24T06:18:10.973Z,8.50
2017-11-24T06:20:39.041Z,8.50
2017-11-24T06:23:07.128Z,8.50
2017-11-24T06:25:35.218Z,8.60
2017-11-24T06:28:04.057Z,8.60
2017-11-24T06:30:32.130Z,8.60
2017-11-24T06:33:00.215Z,8.50
2017-11-24T06:35:29.065Z,8.60
2017-11-24T06:37:59.427Z,8.60
2017-11-24T06:40:29.570Z,8.70
2017-11-24T06:43:01.251Z,8.80
2017-11-24T06:45:32.985Z,8.80
2017-11-24T06:48:04.704Z,8.80
2017-11-24T06:50:42.917Z,8.90
2017-11-24T06:53:14.213Z,8.90
2017-11-24T06:58:31.614Z,9.00
2017-11-24T07:04:10.163Z,9.00
2017-11-24T07:06:44.346Z,9.00
2017-11-24T07:09:23.420Z,9.00
2017-11-24T07:11:54.818Z,9.00
2017-11-24T09:23:27.665Z,15.20
2017-11-24T09:26:00.856Z,15.70
2017-11-24T09:28:30.224Z,15.70
2017-11-24T09:35:14.885Z,15.50
2017-11-24T09:37:46.351Z,14.20
2017-11-24T09:40:16.856Z,14.20
2017-11-24T09:42:47.937Z,14.40
2017-11-24T09:45:19.046Z,14.30
2017-11-24T09:47:54.163Z,14.10
2017-11-24T09:50:24.815Z,14.20
2017-11-24T09:53:21.735Z,13.90
2017-11-24T10:00:05.818Z,13.60
2017-11-24T10:08:12.717Z,13.50
2017-11-24T10:10:44.429Z,13.50
2017-11-24T10:13:13.645Z,13.50
2017-11-24T10:15:44.694Z,13.10
2017-11-24T10:18:23.512Z,13.20
2017-11-24T10:21:01.325Z,13.50
2017-11-24T10:23:44.235Z,13.10
2017-11-24T10:26:23.258Z,13.10
2017-11-24T10:28:55.951Z,12.90
2017-11-24T10:31:57.347Z,12.80
2017-11-24T10:34:26.294Z,12.90
2017-11-24T10:36:56.678Z,12.80
2017-11-24T10:39:34.889Z,12.70
2017-11-24T10:42:13.841Z,12.60
2017-11-24T10:44:46.883Z,12.60
2017-11-24T10:47:23.219Z,12.70
2017-11-24T10:50:06.720Z,13.10
2017-11-24T10:52:38.901Z,13.10
2017-11-24T10:55:42.238Z,13.20
2017-11-24T10:58:11.332Z,13.20
2017-11-24T11:00:54.747Z,12.80
2017-11-24T11:03:33.716Z,12.90
2017-11-24T11:09:34.670Z,12.70
2017-11-24T11:12:13.414Z,12.70
2017-11-24T11:14:51.978Z,12.60
2017-11-24T11:17:20.095Z,12.60
2017-11-24T11:22:45.473Z,13.10
2017-11-24T11:25:20.646Z,13.20
2017-11-24T11:28:03.862Z,14.20
2017-11-24T11:33:30.180Z,14.60
2017-11-24T11:38:48.253Z,14.30
2017-11-24T11:41:21.150Z,15.60
2017-11-24T11:43:58.513Z,16.70
2017-11-24T11:46:28.071Z,16.60
2017-11-24T11:49:02.973Z,16.70
2017-11-24T11:51:32.525Z,18.30
2017-11-24T11:57:06.612Z,17.90
2017-11-24T11:59:38.216Z,18.40
2017-11-24T12:02:13.574Z,17.30
2017-11-24T12:05:05.458Z,17.30
2017-11-24T12:07:45.914Z,17.70
2017-11-24T12:10:21.919Z,17.30
2017-11-24T12:12:54.907Z,17.50
2017-11-24T12:18:04.806Z,18.20
2017-11-24T12:20:34.881Z,18.60
2017-11-24T12:23:09.730Z,17.50
2017-11-24T12:25:42.705Z,18.70
2017-11-24T12:28:16.214Z,17.80
2017-11-24T12:30:46.416Z,18.30
2017-11-24T12:33:15.034Z,18.40
2017-11-24T12:35:58.873Z,17.90
2017-11-24T12:38:28.330Z,17.80
2017-11-24T12:41:05.401Z,17.80
2017-11-24T12:43:37.775Z,16.90
2017-11-24T12:46:09.687Z,17.00
2017-11-24T12:48:42.783Z,16.40
